sensor_id;sensor_type;location;lat;lon;timestamp;pressure;altitude;pressure_sealevel;temperature;humidity
39699;BME280;25372;50.582;12.250;2022-10-17T00:07:22;100474.06;;;11.41;100.00
39699;BME280;25372;50.582;12.250;2022-10-17T00:17:43;100481.25;;;11.24;100.00
39699;BME280;25372;50.582;12.250;2022-10-17T00:28:07;100481.94;;;11.18;100.00
39699;BME280;25372;50.582;12.250;2022-10-17T00:38:28;100457.53;;;10.91;100.00
39699;BME280;25372;50.582;12.250;2022-10-17T00:48:52;100485.00;;;10.98;100.00
39699;BME280;25372;50.582;12.250;2022-10-17T00:59:15;100480.25;;;10.69;100.00
39699;BME280;25372;50.582;12.250;2022-10-17T01:09:39;100502.31;;;10.69;100.00
39699;BME280;25372;50.582;12.250;2022-10-17T01:20:38;100488.19;;;10.85;100.00
39699;BME280;25372;50.582;12.250;2022-10-17T01:31:06;100484.69;;;11.32;100.00
39699;BME280;25372;50.582;12.250;2022-10-17T01:41:37;100484.34;;;11.36;100.00
39699;BME280;25372;50.582;12.250;2022-10-17T01:52:05;100485.78;;;11.15;100.00
39699;BME280;25372;50.582;12.250;2022-10-17T02:02:30;100474.75;;;10.87;100.00
39699;BME280;25372;50.582;12.250;2022-10-17T02:12:55;100469.81;;;10.84;100.00
39699;BME280;25372;50.582;12.250;2022-10-17T02:23:23;100465.84;;;10.71;100.00
39699;BME280;25372;50.582;12.250;2022-10-17T02:33:51;100465.38;;;10.35;100.00
39699;BME280;25372;50.582;12.250;2022-10-17T02:44:15;100466.50;;;10.32;100.00
39699;BME280;25372;50.582;12.250;2022-10-17T02:54:41;100474.31;;;10.17;100.00
39699;BME280;25372;50.582;12.250;2022-10-17T03:05:03;100477.13;;;10.24;100.00
39699;BME280;25372;50.582;12.250;2022-10-17T03:15:25;100462.41;;;10.38;100.00
39699;BME280;25372;50.582;12.250;2022-10-17T03:25:46;100453.59;;;10.04;100.00
39699;BME280;25372;50.582;12.250;2022-10-17T03:36:12;100482.75;;;10.29;100.00
39699;BME280;25372;50.582;12.250;2022-10-17T03:46:34;100478.09;;;10.64;100.00
39699;BME280;25372;50.582;12.250;2022-10-17T03:56:58;100487.00;;;10.96;100.00
39699;BME280;25372;50.582;12.250;2022-10-17T04:07:20;100497.22;;;11.55;100.00
39699;BME280;25372;50.582;12.250;2022-10-17T04:17:43;100504.53;;;11.84;100.00
39699;BME280;25372;50.582;12.250;2022-10-17T04:28:04;100518.25;;;11.88;100.00
39699;BME280;25372;50.582;12.250;2022-10-17T04:38:28;100512.41;;;11.69;100.00
39699;BME280;25372;50.582;12.250;2022-10-17T04:48:49;100525.34;;;11.73;100.00
39699;BME280;25372;50.582;12.250;2022-10-17T04:59:12;100505.88;;;11.49;100.00
39699;BME280;25372;50.582;12.250;2022-10-17T05:09:35;100534.59;;;11.37;100.00
39699;BME280;25372;50.582;12.250;2022-10-17T05:19:59;100528.03;;;11.25;100.00
39699;BME280;25372;50.582;12.250;2022-10-17T05:30:22;100550.00;;;11.50;100.00
39699;BME280;25372;50.582;12.250;2022-10-17T05:40:48;100567.81;;;11.33;100.00
39699;BME280;25372;50.582;12.250;2022-10-17T05:51:10;100563.25;;;11.50;100.00
39699;BME280;25372;50.582;12.250;2022-10-17T06:01:34;100576.22;;;11.93;100.00
39699;BME280;25372;50.582;12.250;2022-10-17T06:11:55;100572.41;;;12.18;100.00
39699;BME280;25372;50.582;12.250;2022-10-17T06:22:18;100591.25;;;12.32;100.00
39699;BME280;25372;50.582;12.250;2022-10-17T06:32:40;100609.50;;;12.12;100.00
39699;BME280;25372;50.582;12.250;2022-10-17T06:43:02;100618.16;;;12.37;100.00
39699;BME280;25372;50.582;12.250;2022-10-17T06:53:42;100619.66;;;12.63;100.00
39699;BME280;25372;50.582;12.250;2022-10-17T07:04:19;100635.69;;;12.93;100.00
39699;BME280;25372;50.582;12.250;2022-10-17T07:14:40;100645.28;;;13.02;100.00
39699;BME280;25372;50.582;12.250;2022-10-17T07:25:03;100644.16;;;13.34;100.00
39699;BME280;25372;50.582;12.250;2022-10-17T07:35:37;100636.53;;;13.61;100.00
39699;BME280;25372;50.582;12.250;2022-10-17T07:46:02;100650.78;;;13.98;100.00
39699;BME280;25372;50.582;12.250;2022-10-17T07:56:25;100653.78;;;14.46;100.00
39699;BME280;25372;50.582;12.250;2022-10-17T08:06:49;100652.38;;;14.87;100.00
39699;BME280;25372;50.582;12.250;2022-10-17T08:17:10;100639.50;;;15.26;100.00
39699;BME280;25372;50.582;12.250;2022-10-17T08:27:33;100660.69;;;15.62;100.00
39699;BME280;25372;50.582;12.250;2022-10-17T08:37:54;100649.59;;;15.94;100.00
39699;BME280;25372;50.582;12.250;2022-10-17T08:48:23;100654.22;;;16.20;99.44
39699;BME280;25372;50.582;12.250;2022-10-17T08:58:46;100651.88;;;16.59;97.21
39699;BME280;25372;50.582;12.250;2022-10-17T09:09:18;100641.41;;;16.97;93.09
39699;BME280;25372;50.582;12.250;2022-10-17T09:19:49;100648.81;;;17.15;92.59
39699;BME280;25372;50.582;12.250;2022-10-17T09:30:27;100640.78;;;17.15;92.81
39699;BME280;25372;50.582;12.250;2022-10-17T09:40:52;100647.78;;;17.30;89.51
39699;BME280;25372;50.582;12.250;2022-10-17T09:51:15;100645.88;;;17.50;89.06
39699;BME280;25372;50.582;12.250;2022-10-17T10:01:36;100638.59;;;17.77;86.37
39699;BME280;25372;50.582;12.250;2022-10-17T10:12:00;100643.69;;;18.06;85.57
39699;BME280;25372;50.582;12.250;2022-10-17T10:22:24;100635.72;;;18.31;82.77
39699;BME280;25372;50.582;12.250;2022-10-17T10:32:47;100637.50;;;18.44;81.25
39699;BME280;25372;50.582;12.250;2022-10-17T10:43:20;100628.69;;;18.62;79.31
39699;BME280;25372;50.582;12.250;2022-10-17T10:53:47;100621.31;;;18.89;77.98
39699;BME280;25372;50.582;12.250;2022-10-17T11:04:20;100627.66;;;18.95;76.75
39699;BME280;25372;50.582;12.250;2022-10-17T11:14:46;100629.06;;;19.23;75.74
39699;BME280;25372;50.582;12.250;2022-10-17T11:25:18;100618.56;;;19.40;73.64
39699;BME280;25372;50.582;12.250;2022-10-17T11:35:44;100603.78;;;19.67;74.25
39699;BME280;25372;50.582;12.250;2022-10-17T11:46:13;100593.25;;;19.84;72.78
39699;BME280;25372;50.582;12.250;2022-10-17T11:56:40;100577.75;;;20.29;71.99
39699;BME280;25372;50.582;12.250;2022-10-17T12:07:10;100565.84;;;20.48;69.53
39699;BME280;25372;50.582;12.250;2022-10-17T12:17:37;100544.13;;;21.09;68.90
39699;BME280;25372;50.582;12.250;2022-10-17T12:28:10;100534.34;;;21.44;68.60
39699;BME280;25372;50.582;12.250;2022-10-17T12:38:33;100522.59;;;21.50;68.14
39699;BME280;25372;50.582;12.250;2022-10-17T12:49:00;100507.31;;;21.67;66.41
39699;BME280;25372;50.582;12.250;2022-10-17T12:59:25;100503.63;;;21.73;67.60
39699;BME280;25372;50.582;12.250;2022-10-17T13:09:48;100494.13;;;21.71;64.50
39699;BME280;25372;50.582;12.250;2022-10-17T13:20:19;100505.53;;;21.73;63.31
39699;BME280;25372;50.582;12.250;2022-10-17T13:30:45;100492.78;;;21.85;63.68
39699;BME280;25372;50.582;12.250;2022-10-17T13:41:11;100501.00;;;21.62;62.49
39699;BME280;25372;50.582;12.250;2022-10-17T13:51:33;100505.75;;;21.31;65.00
39699;BME280;25372;50.582;12.250;2022-10-17T14:01:56;100516.66;;;21.24;65.48
39699;BME280;25372;50.582;12.250;2022-10-17T14:12:20;100519.41;;;20.88;67.80
39699;BME280;25372;50.582;12.250;2022-10-17T14:22:43;100519.19;;;20.66;68.73
39699;BME280;25372;50.582;12.250;2022-10-17T14:33:07;100517.34;;;20.25;69.60
39699;BME280;25372;50.582;12.250;2022-10-17T14:43:30;100506.19;;;19.79;72.74
39699;BME280;25372;50.582;12.250;2022-10-17T14:54:04;100535.88;;;19.72;73.36
39699;BME280;25372;50.582;12.250;2022-10-17T15:04:27;100548.16;;;19.31;73.70
39699;BME280;25372;50.582;12.250;2022-10-17T15:14:48;100561.03;;;19.04;73.38
39699;BME280;25372;50.582;12.250;2022-10-17T15:25:11;100565.59;;;18.53;76.85
39699;BME280;25372;50.582;12.250;2022-10-17T15:35:32;100560.66;;;18.18;77.95
39699;BME280;25372;50.582;12.250;2022-10-17T15:45:54;100574.31;;;17.64;80.24
39699;BME280;25372;50.582;12.250;2022-10-17T15:56:19;100580.84;;;16.96;83.19
39699;BME280;25372;50.582;12.250;2022-10-17T16:06:42;100571.75;;;16.37;86.32
39699;BME280;25372;50.582;12.250;2022-10-17T16:17:03;100594.22;;;16.63;82.01
39699;BME280;25372;50.582;12.250;2022-10-17T16:27:25;100602.44;;;16.41;83.07
39699;BME280;25372;50.582;12.250;2022-10-17T16:37:46;100614.50;;;15.68;88.94
39699;BME280;25372;50.582;12.250;2022-10-17T16:48:09;100615.63;;;14.89;94.24
39699;BME280;25372;50.582;12.250;2022-10-17T16:58:31;100631.94;;;14.36;97.91
39699;BME280;25372;50.582;12.250;2022-10-17T17:08:54;100635.59;;;13.99;100.00
39699;BME280;25372;50.582;12.250;2022-10-17T17:19:15;100633.59;;;13.86;100.00
39699;BME280;25372;50.582;12.250;2022-10-17T17:29:38;100649.94;;;13.98;100.00
39699;BME280;25372;50.582;12.250;2022-10-17T17:39:59;100642.88;;;13.60;100.00
39699;BME280;25372;50.582;12.250;2022-10-17T17:50:21;100662.69;;;13.42;100.00
39699;BME280;25372;50.582;12.250;2022-10-17T18:00:43;100659.63;;;13.31;100.00
39699;BME280;25372;50.582;12.250;2022-10-17T18:11:05;100645.03;;;12.88;100.00
39699;BME280;25372;50.582;12.250;2022-10-17T18:21:26;100661.06;;;12.80;100.00
39699;BME280;25372;50.582;12.250;2022-10-17T18:31:48;100654.72;;;12.81;100.00
39699;BME280;25372;50.582;12.250;2022-10-17T18:42:09;100649.94;;;12.77;100.00
39699;BME280;25372;50.582;12.250;2022-10-17T18:52:31;100651.28;;;12.49;100.00
39699;BME280;25372;50.582;12.250;2022-10-17T19:02:52;100647.00;;;12.48;100.00
39699;BME280;25372;50.582;12.250;2022-10-17T19:13:14;100646.25;;;12.31;100.00
39699;BME280;25372;50.582;12.250;2022-10-17T19:23:36;100646.72;;;12.12;100.00
39699;BME280;25372;50.582;12.250;2022-10-17T19:33:59;100667.50;;;11.92;100.00
39699;BME280;25372;50.582;12.250;2022-10-17T19:44:20;100667.72;;;11.82;100.00
39699;BME280;25372;50.582;12.250;2022-10-17T19:54:42;100678.47;;;11.97;100.00
39699;BME280;25372;50.582;12.250;2022-10-17T20:05:04;100692.06;;;12.02;100.00
39699;BME280;25372;50.582;12.250;2022-10-17T20:15:32;100705.22;;;11.87;100.00
39699;BME280;25372;50.582;12.250;2022-10-17T20:25:57;100708.53;;;11.81;100.00
39699;BME280;25372;50.582;12.250;2022-10-17T20:36:20;100706.53;;;11.99;100.00
39699;BME280;25372;50.582;12.250;2022-10-17T20:46:41;100706.91;;;11.80;100.00
39699;BME280;25372;50.582;12.250;2022-10-17T20:57:04;100710.69;;;11.94;100.00
39699;BME280;25372;50.582;12.250;2022-10-17T21:07:25;100716.50;;;11.81;100.00
39699;BME280;25372;50.582;12.250;2022-10-17T21:17:47;100709.91;;;11.77;100.00
39699;BME280;25372;50.582;12.250;2022-10-17T21:28:08;100719.38;;;11.55;100.00
39699;BME280;25372;50.582;12.250;2022-10-17T21:38:30;100715.88;;;11.71;100.00
39699;BME280;25372;50.582;12.250;2022-10-17T21:48:53;100709.72;;;11.78;100.00
39699;BME280;25372;50.582;12.250;2022-10-17T21:59:15;100708.41;;;11.82;100.00
39699;BME280;25372;50.582;12.250;2022-10-17T22:09:37;100723.00;;;11.78;100.00
39699;BME280;25372;50.582;12.250;2022-10-17T22:19:59;100721.84;;;11.64;100.00
39699;BME280;25372;50.582;12.250;2022-10-17T22:30:20;100735.81;;;11.58;100.00
39699;BME280;25372;50.582;12.250;2022-10-17T22:40:44;100731.34;;;11.34;100.00
39699;BME280;25372;50.582;12.250;2022-10-17T22:51:05;100740.16;;;11.34;100.00
39699;BME280;25372;50.582;12.250;2022-10-17T23:01:28;100744.94;;;11.06;100.00
39699;BME280;25372;50.582;12.250;2022-10-17T23:11:49;100743.13;;;10.98;100.00
39699;BME280;25372;50.582;12.250;2022-10-17T23:22:11;100732.00;;;10.95;100.00
39699;BME280;25372;50.582;12.250;2022-10-17T23:32:32;100731.97;;;10.78;100.00
39699;BME280;25372;50.582;12.250;2022-10-17T23:42:54;100730.78;;;10.73;100.00
39699;BME280;25372;50.582;12.250;2022-10-17T23:53:15;100719.69;;;10.77;100.00
